sensor_id;sensor_type;location;lat;lon;timestamp;temperature;humidity
1830;DHT22;914;48.118;11.600;2023-08-20T00:01:25;26.20;89.50
1830;DHT22;914;48.118;11.600;2023-08-20T00:03:51;26.00;90.00
1830;DHT22;914;48.118;11.600;2023-08-20T00:06:18;26.00;90.00
1830;DHT22;914;48.118;11.600;2023-08-20T00:08:44;25.90;89.80
1830;DHT22;914;48.118;11.600;2023-08-20T00:11:11;25.90;90.40
1830;DHT22;914;48.118;11.600;2023-08-20T00:13:37;25.90;89.80
1830;DHT22;914;48.118;11.600;2023-08-20T00:16:03;25.80;90.00
1830;DHT22;914;48.118;11.600;2023-08-20T00:18:30;25.70;90.30
1830;DHT22;914;48.118;11.600;2023-08-20T00:20:56;25.70;90.10
1830;DHT22;914;48.118;11.600;2023-08-20T00:23:22;25.80;90.20
1830;DHT22;914;48.118;11.600;2023-08-20T00:25:48;25.70;90.30
1830;DHT22;914;48.118;11.600;2023-08-20T00:28:14;25.60;90.60
1830;DHT22;914;48.118;11.600;2023-08-20T00:30:40;25.50;90.80
1830;DHT22;914;48.118;11.600;2023-08-20T00:33:05;25.50;90.60
1830;DHT22;914;48.118;11.600;2023-08-20T00:35:31;25.60;90.60
1830;DHT22;914;48.118;11.600;2023-08-20T00:37:57;25.70;90.50
1830;DHT22;914;48.118;11.600;2023-08-20T00:40:23;25.80;90.40
1830;DHT22;914;48.118;11.600;2023-08-20T00:42:48;26.10;90.20
1830;DHT22;914;48.118;11.600;2023-08-20T00:45:15;25.90;89.70
1830;DHT22;914;48.118;11.600;2023-08-20T00:47:42;25.80;90.20
1830;DHT22;914;48.118;11.600;2023-08-20T00:50:08;25.60;90.60
1830;DHT22;914;48.118;11.600;2023-08-20T00:52:34;25.50;90.70
1830;DHT22;914;48.118;11.600;2023-08-20T00:55:08;25.50;90.90
1830;DHT22;914;48.118;11.600;2023-08-20T00:57:35;25.40;91.00
1830;DHT22;914;48.118;11.600;2023-08-20T01:00:01;25.40;91.20
1830;DHT22;914;48.118;11.600;2023-08-20T01:02:32;25.30;91.20
1830;DHT22;914;48.118;11.600;2023-08-20T01:04:58;25.40;91.10
1830;DHT22;914;48.118;11.600;2023-08-20T01:07:30;25.60;91.00
1830;DHT22;914;48.118;11.600;2023-08-20T01:12:34;25.40;91.20
1830;DHT22;914;48.118;11.600;2023-08-20T01:15:01;25.20;91.40
1830;DHT22;914;48.118;11.600;2023-08-20T01:17:26;25.10;91.60
1830;DHT22;914;48.118;11.600;2023-08-20T01:19:52;24.90;92.00
1830;DHT22;914;48.118;11.600;2023-08-20T01:27:56;24.90;92.60
1830;DHT22;914;48.118;11.600;2023-08-20T01:30:24;25.00;92.20
1830;DHT22;914;48.118;11.600;2023-08-20T01:32:52;25.10;91.70
1830;DHT22;914;48.118;11.600;2023-08-20T01:35:18;25.30;91.80
1830;DHT22;914;48.118;11.600;2023-08-20T01:37:44;25.40;91.60
1830;DHT22;914;48.118;11.600;2023-08-20T01:40:10;25.40;91.50
1830;DHT22;914;48.118;11.600;2023-08-20T01:42:40;25.50;91.30
1830;DHT22;914;48.118;11.600;2023-08-20T01:45:06;25.30;91.20
1830;DHT22;914;48.118;11.600;2023-08-20T01:47:33;25.20;91.50
1830;DHT22;914;48.118;11.600;2023-08-20T01:49:58;25.10;91.90
1830;DHT22;914;48.118;11.600;2023-08-20T01:52:24;24.80;92.40
1830;DHT22;914;48.118;11.600;2023-08-20T01:54:50;24.60;92.60
1830;DHT22;914;48.118;11.600;2023-08-20T01:57:16;24.50;93.10
1830;DHT22;914;48.118;11.600;2023-08-20T01:59:42;24.50;92.60
1830;DHT22;914;48.118;11.600;2023-08-20T02:02:07;24.60;92.20
1830;DHT22;914;48.118;11.600;2023-08-20T02:04:33;24.60;92.30
1830;DHT22;914;48.118;11.600;2023-08-20T02:06:59;24.60;92.80
1830;DHT22;914;48.118;11.600;2023-08-20T02:09:25;24.60;93.00
1830;DHT22;914;48.118;11.600;2023-08-20T02:15:38;24.40;93.20
1830;DHT22;914;48.118;11.600;2023-08-20T02:18:04;24.50;93.00
1830;DHT22;914;48.118;11.600;2023-08-20T02:20:29;24.60;92.50
1830;DHT22;914;48.118;11.600;2023-08-20T02:22:55;24.60;92.30
1830;DHT22;914;48.118;11.600;2023-08-20T02:25:20;24.60;91.90
1830;DHT22;914;48.118;11.600;2023-08-20T02:27:46;24.60;92.00
1830;DHT22;914;48.118;11.600;2023-08-20T02:30:12;24.50;92.20
1830;DHT22;914;48.118;11.600;2023-08-20T02:32:39;24.50;93.10
1830;DHT22;914;48.118;11.600;2023-08-20T02:35:05;24.40;93.30
1830;DHT22;914;48.118;11.600;2023-08-20T02:37:32;24.40;93.70
1830;DHT22;914;48.118;11.600;2023-08-20T02:39:57;24.30;93.60
1830;DHT22;914;48.118;11.600;2023-08-20T02:42:23;24.30;93.60
1830;DHT22;914;48.118;11.600;2023-08-20T02:44:49;24.30;93.60
1830;DHT22;914;48.118;11.600;2023-08-20T02:47:15;24.30;93.50
1830;DHT22;914;48.118;11.600;2023-08-20T02:49:40;24.40;93.30
1830;DHT22;914;48.118;11.600;2023-08-20T02:52:06;24.40;92.90
1830;DHT22;914;48.118;11.600;2023-08-20T02:54:31;24.40;92.40
1830;DHT22;914;48.118;11.600;2023-08-20T02:57:00;24.30;92.40
1830;DHT22;914;48.118;11.600;2023-08-20T02:59:25;24.30;92.20
1830;DHT22;914;48.118;11.600;2023-08-20T03:01:51;24.40;92.50
1830;DHT22;914;48.118;11.600;2023-08-20T03:04:17;24.30;92.20
1830;DHT22;914;48.118;11.600;2023-08-20T03:06:43;24.10;92.80
1830;DHT22;914;48.118;11.600;2023-08-20T03:09:09;24.10;93.50
1830;DHT22;914;48.118;11.600;2023-08-20T03:11:35;23.90;94.10
1830;DHT22;914;48.118;11.600;2023-08-20T03:14:00;23.70;94.30
1830;DHT22;914;48.118;11.600;2023-08-20T03:16:26;23.80;93.70
1830;DHT22;914;48.118;11.600;2023-08-20T03:18:51;23.80;93.70
1830;DHT22;914;48.118;11.600;2023-08-20T03:21:17;24.00;93.50
1830;DHT22;914;48.118;11.600;2023-08-20T03:23:43;24.00;93.60
1830;DHT22;914;48.118;11.600;2023-08-20T03:26:08;23.90;93.80
1830;DHT22;914;48.118;11.600;2023-08-20T03:28:34;23.80;94.20
1830;DHT22;914;48.118;11.600;2023-08-20T03:31:00;23.70;94.10
1830;DHT22;914;48.118;11.600;2023-08-20T03:33:26;23.60;94.20
1830;DHT22;914;48.118;11.600;2023-08-20T03:35:52;23.60;94.50
1830;DHT22;914;48.118;11.600;2023-08-20T03:38:17;23.70;94.50
1830;DHT22;914;48.118;11.600;2023-08-20T03:40:43;23.70;94.20
1830;DHT22;914;48.118;11.600;2023-08-20T03:43:10;23.70;94.10
1830;DHT22;914;48.118;11.600;2023-08-20T03:45:36;23.70;94.10
1830;DHT22;914;48.118;11.600;2023-08-20T03:48:02;23.70;93.70
1830;DHT22;914;48.118;11.600;2023-08-20T03:50:27;23.70;94.20
1830;DHT22;914;48.118;11.600;2023-08-20T03:52:53;23.70;93.60
1830;DHT22;914;48.118;11.600;2023-08-20T03:55:18;23.80;93.40
1830;DHT22;914;48.118;11.600;2023-08-20T03:57:44;23.80;93.20
1830;DHT22;914;48.118;11.600;2023-08-20T04:00:10;23.80;93.50
1830;DHT22;914;48.118;11.600;2023-08-20T04:02:37;23.80;93.40
1830;DHT22;914;48.118;11.600;2023-08-20T04:05:04;23.80;93.70
1830;DHT22;914;48.118;11.600;2023-08-20T04:07:30;23.80;93.70
1830;DHT22;914;48.118;11.600;2023-08-20T04:09:55;23.70;93.90
1830;DHT22;914;48.118;11.600;2023-08-20T04:12:21;23.50;94.30
1830;DHT22;914;48.118;11.600;2023-08-20T04:14:47;23.50;94.30
1830;DHT22;914;48.118;11.600;2023-08-20T04:17:12;23.50;93.50
1830;DHT22;914;48.118;11.600;2023-08-20T04:19:38;23.50;93.20
1830;DHT22;914;48.118;11.600;2023-08-20T04:22:03;23.50;93.20
1830;DHT22;914;48.118;11.600;2023-08-20T04:24:29;23.50;93.40
1830;DHT22;914;48.118;11.600;2023-08-20T04:26:55;23.50;93.90
1830;DHT22;914;48.118;11.600;2023-08-20T04:29:20;23.50;94.00
1830;DHT22;914;48.118;11.600;2023-08-20T04:31:46;23.50;94.20
1830;DHT22;914;48.118;11.600;2023-08-20T04:34:11;23.50;94.30
1830;DHT22;914;48.118;11.600;2023-08-20T04:36:37;23.30;94.60
1830;DHT22;914;48.118;11.600;2023-08-20T04:39:03;23.30;94.90
1830;DHT22;914;48.118;11.600;2023-08-20T04:41:30;23.40;94.60
1830;DHT22;914;48.118;11.600;2023-08-20T04:43:55;23.60;94.40
1830;DHT22;914;48.118;11.600;2023-08-20T04:46:21;23.60;94.30
1830;DHT22;914;48.118;11.600;2023-08-20T04:48:47;23.50;94.80
1830;DHT22;914;48.118;11.600;2023-08-20T04:51:12;23.40;94.90
1830;DHT22;914;48.118;11.600;2023-08-20T04:53:38;23.40;94.70
1830;DHT22;914;48.118;11.600;2023-08-20T04:56:03;23.40;94.90
1830;DHT22;914;48.118;11.600;2023-08-20T04:58:29;23.40;94.60
1830;DHT22;914;48.118;11.600;2023-08-20T05:00:55;23.50;94.50
1830;DHT22;914;48.118;11.600;2023-08-20T05:03:20;23.50;94.60
1830;DHT22;914;48.118;11.600;2023-08-20T05:05:50;23.60;94.30
1830;DHT22;914;48.118;11.600;2023-08-20T05:08:15;23.60;94.10
1830;DHT22;914;48.118;11.600;2023-08-20T05:10:42;23.60;94.40
1830;DHT22;914;48.118;11.600;2023-08-20T05:13:08;23.60;94.90
1830;DHT22;914;48.118;11.600;2023-08-20T05:15:33;23.40;95.30
1830;DHT22;914;48.118;11.600;2023-08-20T05:17:59;23.40;95.50
1830;DHT22;914;48.118;11.600;2023-08-20T05:20:25;23.40;95.60
1830;DHT22;914;48.118;11.600;2023-08-20T05:22:50;23.30;95.60
1830;DHT22;914;48.118;11.600;2023-08-20T05:25:16;23.40;94.90
1830;DHT22;914;48.118;11.600;2023-08-20T05:27:42;23.30;95.60
1830;DHT22;914;48.118;11.600;2023-08-20T05:30:07;23.30;95.50
1830;DHT22;914;48.118;11.600;2023-08-20T05:32:34;23.40;95.10
1830;DHT22;914;48.118;11.600;2023-08-20T05:34:59;23.50;94.80
1830;DHT22;914;48.118;11.600;2023-08-20T05:37:25;23.50;95.10
1830;DHT22;914;48.118;11.600;2023-08-20T05:39:50;23.60;95.50
1830;DHT22;914;48.118;11.600;2023-08-20T05:42:16;23.60;95.80
1830;DHT22;914;48.118;11.600;2023-08-20T05:44:42;23.80;95.80
1830;DHT22;914;48.118;11.600;2023-08-20T05:47:08;23.90;95.70
1830;DHT22;914;48.118;11.600;2023-08-20T05:49:33;24.00;95.60
1830;DHT22;914;48.118;11.600;2023-08-20T05:51:59;24.10;95.60
1830;DHT22;914;48.118;11.600;2023-08-20T05:54:25;24.20;95.50
1830;DHT22;914;48.118;11.600;2023-08-20T05:56:50;24.20;95.80
1830;DHT22;914;48.118;11.600;2023-08-20T05:59:16;24.30;95.90
1830;DHT22;914;48.118;11.600;2023-08-20T06:01:41;24.40;95.80
1830;DHT22;914;48.118;11.600;2023-08-20T06:04:08;24.50;95.80
1830;DHT22;914;48.118;11.600;2023-08-20T06:06:35;24.70;95.60
1830;DHT22;914;48.118;11.600;2023-08-20T06:09:00;24.80;95.10
1830;DHT22;914;48.118;11.600;2023-08-20T06:11:26;25.00;95.10
1830;DHT22;914;48.118;11.600;2023-08-20T06:13:52;25.10;94.80
1830;DHT22;914;48.118;11.600;2023-08-20T06:16:17;25.20;93.60
1830;DHT22;914;48.118;11.600;2023-08-20T06:18:43;25.40;93.10
1830;DHT22;914;48.118;11.600;2023-08-20T06:21:08;25.60;93.10
1830;DHT22;914;48.118;11.600;2023-08-20T06:23:34;25.70;92.40
1830;DHT22;914;48.118;11.600;2023-08-20T06:26:00;25.80;92.90
1830;DHT22;914;48.118;11.600;2023-08-20T06:28:25;25.90;93.00
1830;DHT22;914;48.118;11.600;2023-08-20T06:30:51;25.90;92.20
1830;DHT22;914;48.118;11.600;2023-08-20T06:33:16;26.00;92.00
1830;DHT22;914;48.118;11.600;2023-08-20T06:35:42;26.20;92.30
1830;DHT22;914;48.118;11.600;2023-08-20T06:38:08;26.10;91.00
1830;DHT22;914;48.118;11.600;2023-08-20T06:40:33;26.30;91.50
1830;DHT22;914;48.118;11.600;2023-08-20T06:42:59;26.50;91.60
1830;DHT22;914;48.118;11.600;2023-08-20T06:45:25;26.60;91.40
1830;DHT22;914;48.118;11.600;2023-08-20T06:47:50;26.70;90.80
1830;DHT22;914;48.118;11.600;2023-08-20T06:50:16;26.90;90.80
1830;DHT22;914;48.118;11.600;2023-08-20T06:52:42;27.00;91.10
1830;DHT22;914;48.118;11.600;2023-08-20T06:55:08;27.20;90.80
1830;DHT22;914;48.118;11.600;2023-08-20T06:57:34;27.20;90.80
1830;DHT22;914;48.118;11.600;2023-08-20T06:59:59;27.30;90.30
1830;DHT22;914;48.118;11.600;2023-08-20T07:02:25;27.50;89.80
1830;DHT22;914;48.118;11.600;2023-08-20T07:04:50;27.60;90.00
1830;DHT22;914;48.118;11.600;2023-08-20T07:07:16;27.80;89.90
1830;DHT22;914;48.118;11.600;2023-08-20T07:09:42;27.80;89.80
1830;DHT22;914;48.118;11.600;2023-08-20T07:12:07;27.70;89.40
1830;DHT22;914;48.118;11.600;2023-08-20T07:14:33;27.80;89.00
1830;DHT22;914;48.118;11.600;2023-08-20T07:16:59;28.00;90.10
1830;DHT22;914;48.118;11.600;2023-08-20T07:19:25;28.20;88.20
1830;DHT22;914;48.118;11.600;2023-08-20T07:21:51;28.40;88.00
1830;DHT22;914;48.118;11.600;2023-08-20T07:24:17;28.40;87.80
1830;DHT22;914;48.118;11.600;2023-08-20T07:26:43;28.50;86.30
1830;DHT22;914;48.118;11.600;2023-08-20T07:29:09;28.60;85.00
1830;DHT22;914;48.118;11.600;2023-08-20T07:31:35;28.50;84.10
1830;DHT22;914;48.118;11.600;2023-08-20T07:34:02;28.30;84.10
1830;DHT22;914;48.118;11.600;2023-08-20T07:36:28;28.60;84.90
1830;DHT22;914;48.118;11.600;2023-08-20T07:38:54;28.60;83.70
1830;DHT22;914;48.118;11.600;2023-08-20T07:41:21;28.80;83.50
1830;DHT22;914;48.118;11.600;2023-08-20T07:43:47;29.10;82.40
1830;DHT22;914;48.118;11.600;2023-08-20T07:46:14;29.30;81.60
1830;DHT22;914;48.118;11.600;2023-08-20T07:48:39;29.30;81.50
1830;DHT22;914;48.118;11.600;2023-08-20T07:51:05;28.90;78.90
1830;DHT22;914;48.118;11.600;2023-08-20T07:53:32;28.70;79.80
1830;DHT22;914;48.118;11.600;2023-08-20T07:55:58;29.10;79.80
1830;DHT22;914;48.118;11.600;2023-08-20T07:58:24;29.20;79.30
1830;DHT22;914;48.118;11.600;2023-08-20T08:00:50;29.40;78.90
1830;DHT22;914;48.118;11.600;2023-08-20T08:03:15;29.60;78.90
1830;DHT22;914;48.118;11.600;2023-08-20T08:05:49;29.70;79.20
1830;DHT22;914;48.118;11.600;2023-08-20T08:08:16;29.90;78.90
1830;DHT22;914;48.118;11.600;2023-08-20T08:10:41;30.00;78.20
1830;DHT22;914;48.118;11.600;2023-08-20T08:13:10;30.00;77.20
1830;DHT22;914;48.118;11.600;2023-08-20T08:15:35;30.00;76.60
1830;DHT22;914;48.118;11.600;2023-08-20T08:18:01;30.20;76.40
1830;DHT22;914;48.118;11.600;2023-08-20T08:20:27;30.40;76.00
1830;DHT22;914;48.118;11.600;2023-08-20T08:22:52;30.40;74.50
1830;DHT22;914;48.118;11.600;2023-08-20T08:25:18;30.50;74.20
1830;DHT22;914;48.118;11.600;2023-08-20T08:27:44;30.50;75.40
1830;DHT22;914;48.118;11.600;2023-08-20T08:30:11;30.60;76.40
1830;DHT22;914;48.118;11.600;2023-08-20T08:32:37;30.60;75.60
1830;DHT22;914;48.118;11.600;2023-08-20T08:35:03;30.90;75.00
1830;DHT22;914;48.118;11.600;2023-08-20T08:37:28;31.10;74.50
1830;DHT22;914;48.118;11.600;2023-08-20T08:39:54;31.00;74.60
1830;DHT22;914;48.118;11.600;2023-08-20T08:42:22;31.20;73.80
1830;DHT22;914;48.118;11.600;2023-08-20T08:44:49;31.10;73.50
1830;DHT22;914;48.118;11.600;2023-08-20T08:47:16;31.20;74.10
1830;DHT22;914;48.118;11.600;2023-08-20T08:49:42;31.20;74.40
1830;DHT22;914;48.118;11.600;2023-08-20T08:52:10;31.10;73.50
1830;DHT22;914;48.118;11.600;2023-08-20T08:54:36;31.20;73.40
1830;DHT22;914;48.118;11.600;2023-08-20T08:57:02;31.30;73.40
1830;DHT22;914;48.118;11.600;2023-08-20T08:59:28;31.20;73.60
1830;DHT22;914;48.118;11.600;2023-08-20T09:01:54;31.10;75.30
1830;DHT22;914;48.118;11.600;2023-08-20T09:04:22;31.40;74.10
1830;DHT22;914;48.118;11.600;2023-08-20T09:06:53;31.80;72.60
1830;DHT22;914;48.118;11.600;2023-08-20T09:09:21;31.80;73.10
1830;DHT22;914;48.118;11.600;2023-08-20T09:11:47;32.10;72.10
1830;DHT22;914;48.118;11.600;2023-08-20T09:14:24;31.70;71.50
1830;DHT22;914;48.118;11.600;2023-08-20T09:16:57;31.90;72.10
1830;DHT22;914;48.118;11.600;2023-08-20T09:19:23;31.80;73.40
1830;DHT22;914;48.118;11.600;2023-08-20T09:21:49;32.00;73.20
1830;DHT22;914;48.118;11.600;2023-08-20T09:24:15;32.20;72.90
1830;DHT22;914;48.118;11.600;2023-08-20T09:26:45;32.30;72.80
1830;DHT22;914;48.118;11.600;2023-08-20T09:29:11;32.60;72.50
1830;DHT22;914;48.118;11.600;2023-08-20T09:31:38;32.60;72.90
1830;DHT22;914;48.118;11.600;2023-08-20T09:34:04;32.70;70.40
1830;DHT22;914;48.118;11.600;2023-08-20T09:36:33;32.50;71.50
1830;DHT22;914;48.118;11.600;2023-08-20T09:38:59;32.40;69.70
1830;DHT22;914;48.118;11.600;2023-08-20T09:41:25;32.50;69.20
1830;DHT22;914;48.118;11.600;2023-08-20T09:43:56;32.70;67.10
1830;DHT22;914;48.118;11.600;2023-08-20T09:46:27;32.80;66.10
1830;DHT22;914;48.118;11.600;2023-08-20T09:48:56;32.80;67.50
1830;DHT22;914;48.118;11.600;2023-08-20T09:51:27;32.80;66.80
1830;DHT22;914;48.118;11.600;2023-08-20T09:54:06;32.80;67.30
1830;DHT22;914;48.118;11.600;2023-08-20T09:56:38;33.00;67.00
1830;DHT22;914;48.118;11.600;2023-08-20T09:59:05;32.90;65.80
1830;DHT22;914;48.118;11.600;2023-08-20T10:01:31;33.00;66.70
1830;DHT22;914;48.118;11.600;2023-08-20T10:03:57;33.00;66.80
1830;DHT22;914;48.118;11.600;2023-08-20T10:06:23;33.30;66.50
1830;DHT22;914;48.118;11.600;2023-08-20T10:08:51;33.20;66.30
1830;DHT22;914;48.118;11.600;2023-08-20T10:11:16;33.70;64.70
1830;DHT22;914;48.118;11.600;2023-08-20T10:13:43;33.60;64.40
1830;DHT22;914;48.118;11.600;2023-08-20T10:16:11;33.60;64.80
1830;DHT22;914;48.118;11.600;2023-08-20T10:18:37;33.70;64.00
1830;DHT22;914;48.118;11.600;2023-08-20T10:21:03;34.10;63.30
1830;DHT22;914;48.118;11.600;2023-08-20T10:23:30;33.70;62.20
1830;DHT22;914;48.118;11.600;2023-08-20T10:26:07;33.70;63.80
1830;DHT22;914;48.118;11.600;2023-08-20T10:28:33;34.00;62.00
1830;DHT22;914;48.118;11.600;2023-08-20T10:33:39;33.60;63.30
1830;DHT22;914;48.118;11.600;2023-08-20T10:36:31;34.00;62.50
1830;DHT22;914;48.118;11.600;2023-08-20T10:39:20;34.10;61.60
1830;DHT22;914;48.118;11.600;2023-08-20T10:47:24;34.00;65.80
1830;DHT22;914;48.118;11.600;2023-08-20T10:49:53;34.50;62.40
1830;DHT22;914;48.118;11.600;2023-08-20T10:52:23;34.50;62.50
1830;DHT22;914;48.118;11.600;2023-08-20T10:54:53;33.80;61.50
1830;DHT22;914;48.118;11.600;2023-08-20T10:57:21;33.90;63.30
1830;DHT22;914;48.118;11.600;2023-08-20T10:59:57;34.30;61.40
1830;DHT22;914;48.118;11.600;2023-08-20T11:02:25;34.10;60.50
1830;DHT22;914;48.118;11.600;2023-08-20T11:04:52;33.10;61.20
1830;DHT22;914;48.118;11.600;2023-08-20T11:07:18;33.40;62.70
1830;DHT22;914;48.118;11.600;2023-08-20T11:09:45;33.50;63.40
1830;DHT22;914;48.118;11.600;2023-08-20T11:12:14;33.90;61.80
1830;DHT22;914;48.118;11.600;2023-08-20T11:14:40;34.60;63.40
1830;DHT22;914;48.118;11.600;2023-08-20T11:17:06;34.00;61.10
1830;DHT22;914;48.118;11.600;2023-08-20T11:19:33;33.70;62.80
1830;DHT22;914;48.118;11.600;2023-08-20T11:21:59;33.60;60.50
1830;DHT22;914;48.118;11.600;2023-08-20T11:24:29;33.80;62.50
1830;DHT22;914;48.118;11.600;2023-08-20T11:26:54;34.10;62.30
1830;DHT22;914;48.118;11.600;2023-08-20T11:29:25;34.40;60.70
1830;DHT22;914;48.118;11.600;2023-08-20T11:31:51;34.80;60.70
1830;DHT22;914;48.118;11.600;2023-08-20T11:34:20;34.90;59.40
1830;DHT22;914;48.118;11.600;2023-08-20T11:36:46;34.20;60.30
1830;DHT22;914;48.118;11.600;2023-08-20T11:39:13;34.20;60.80
1830;DHT22;914;48.118;11.600;2023-08-20T11:41:40;34.50;60.30
1830;DHT22;914;48.118;11.600;2023-08-20T11:44:08;34.60;61.90
1830;DHT22;914;48.118;11.600;2023-08-20T11:46:42;35.10;60.50
1830;DHT22;914;48.118;11.600;2023-08-20T11:49:09;35.50;59.30
1830;DHT22;914;48.118;11.600;2023-08-20T11:51:41;35.70;59.20
1830;DHT22;914;48.118;11.600;2023-08-20T11:54:08;35.80;58.10
1830;DHT22;914;48.118;11.600;2023-08-20T11:56:34;35.70;58.60
1830;DHT22;914;48.118;11.600;2023-08-20T11:59:01;35.90;57.20
1830;DHT22;914;48.118;11.600;2023-08-20T12:01:31;35.20;57.80
1830;DHT22;914;48.118;11.600;2023-08-20T12:04:03;34.70;58.80
1830;DHT22;914;48.118;11.600;2023-08-20T12:06:29;35.00;59.40
1830;DHT22;914;48.118;11.600;2023-08-20T12:08:57;34.80;58.10
1830;DHT22;914;48.118;11.600;2023-08-20T12:11:27;35.00;59.30
1830;DHT22;914;48.118;11.600;2023-08-20T12:13:54;35.10;58.00
1830;DHT22;914;48.118;11.600;2023-08-20T12:16:22;36.10;58.80
1830;DHT22;914;48.118;11.600;2023-08-20T12:18:49;37.70;58.10
1830;DHT22;914;48.118;11.600;2023-08-20T12:21:14;39.10;53.70
1830;DHT22;914;48.118;11.600;2023-08-20T12:23:41;36.80;53.90
1830;DHT22;914;48.118;11.600;2023-08-20T12:26:06;37.60;55.10
1830;DHT22;914;48.118;11.600;2023-08-20T12:28:33;38.80;54.50
1830;DHT22;914;48.118;11.600;2023-08-20T12:30:59;40.20;53.40
1830;DHT22;914;48.118;11.600;2023-08-20T12:33:25;38.80;52.50
1830;DHT22;914;48.118;11.600;2023-08-20T12:35:54;39.10;53.90
1830;DHT22;914;48.118;11.600;2023-08-20T12:38:20;39.40;53.30
1830;DHT22;914;48.118;11.600;2023-08-20T12:40:46;40.40;54.10
1830;DHT22;914;48.118;11.600;2023-08-20T12:43:11;41.20;52.50
1830;DHT22;914;48.118;11.600;2023-08-20T12:45:37;41.80;49.50
1830;DHT22;914;48.118;11.600;2023-08-20T12:48:05;41.10;50.60
1830;DHT22;914;48.118;11.600;2023-08-20T12:50:31;42.40;50.50
1830;DHT22;914;48.118;11.600;2023-08-20T12:52:56;43.30;49.20
1830;DHT22;914;48.118;11.600;2023-08-20T12:55:22;41.10;48.50
1830;DHT22;914;48.118;11.600;2023-08-20T12:57:56;40.40;49.90
1830;DHT22;914;48.118;11.600;2023-08-20T13:00:23;38.60;51.00
1830;DHT22;914;48.118;11.600;2023-08-20T13:02:50;38.70;52.00
1830;DHT22;914;48.118;11.600;2023-08-20T13:05:16;40.40;50.20
1830;DHT22;914;48.118;11.600;2023-08-20T13:07:42;41.50;50.60
1830;DHT22;914;48.118;11.600;2023-08-20T13:10:08;43.00;50.10
1830;DHT22;914;48.118;11.600;2023-08-20T13:12:34;44.10;48.60
1830;DHT22;914;48.118;11.600;2023-08-20T13:15:00;44.20;46.50
1830;DHT22;914;48.118;11.600;2023-08-20T13:17:29;44.00;46.80
1830;DHT22;914;48.118;11.600;2023-08-20T13:19:55;42.90;47.80
1830;DHT22;914;48.118;11.600;2023-08-20T13:22:21;43.40;47.90
1830;DHT22;914;48.118;11.600;2023-08-20T13:24:47;43.50;48.00
1830;DHT22;914;48.118;11.600;2023-08-20T13:27:13;44.70;47.10
1830;DHT22;914;48.118;11.600;2023-08-20T13:29:40;45.30;48.50
1830;DHT22;914;48.118;11.600;2023-08-20T13:32:06;45.50;46.50
1830;DHT22;914;48.118;11.600;2023-08-20T13:34:35;45.80;48.10
1830;DHT22;914;48.118;11.600;2023-08-20T13:37:00;46.20;45.90
1830;DHT22;914;48.118;11.600;2023-08-20T13:39:26;46.00;44.10
1830;DHT22;914;48.118;11.600;2023-08-20T13:41:52;44.80;46.80
1830;DHT22;914;48.118;11.600;2023-08-20T13:44:19;45.20;45.60
1830;DHT22;914;48.118;11.600;2023-08-20T13:46:45;45.50;45.40
1830;DHT22;914;48.118;11.600;2023-08-20T13:49:11;45.80;46.70
1830;DHT22;914;48.118;11.600;2023-08-20T13:51:37;45.00;45.00
1830;DHT22;914;48.118;11.600;2023-08-20T13:54:03;44.50;45.20
1830;DHT22;914;48.118;11.600;2023-08-20T13:56:28;44.30;48.30
1830;DHT22;914;48.118;11.600;2023-08-20T13:58:54;44.30;45.60
1830;DHT22;914;48.118;11.600;2023-08-20T14:01:20;42.70;45.70
1830;DHT22;914;48.118;11.600;2023-08-20T14:03:46;41.40;47.90
1830;DHT22;914;48.118;11.600;2023-08-20T14:06:12;37.90;50.00
1830;DHT22;914;48.118;11.600;2023-08-20T14:08:38;35.60;53.60
1830;DHT22;914;48.118;11.600;2023-08-20T14:11:03;35.00;55.80
1830;DHT22;914;48.118;11.600;2023-08-20T14:13:29;34.90;56.10
1830;DHT22;914;48.118;11.600;2023-08-20T14:15:54;35.20;56.60
1830;DHT22;914;48.118;11.600;2023-08-20T14:18:20;35.70;56.20
1830;DHT22;914;48.118;11.600;2023-08-20T14:20:46;36.20;54.70
1830;DHT22;914;48.118;11.600;2023-08-20T14:23:12;36.60;53.80
1830;DHT22;914;48.118;11.600;2023-08-20T14:25:37;36.50;53.80
1830;DHT22;914;48.118;11.600;2023-08-20T14:28:07;36.60;53.90
1830;DHT22;914;48.118;11.600;2023-08-20T14:30:37;36.40;54.50
1830;DHT22;914;48.118;11.600;2023-08-20T14:33:04;36.40;54.20
1830;DHT22;914;48.118;11.600;2023-08-20T14:35:30;36.20;54.50
1830;DHT22;914;48.118;11.600;2023-08-20T14:37:56;36.20;54.70
1830;DHT22;914;48.118;11.600;2023-08-20T14:40:22;36.20;55.10
1830;DHT22;914;48.118;11.600;2023-08-20T14:42:49;35.90;55.20
1830;DHT22;914;48.118;11.600;2023-08-20T14:45:15;35.80;56.40
1830;DHT22;914;48.118;11.600;2023-08-20T14:47:40;36.10;55.60
1830;DHT22;914;48.118;11.600;2023-08-20T14:50:06;35.60;55.50
1830;DHT22;914;48.118;11.600;2023-08-20T14:52:33;35.50;55.60
1830;DHT22;914;48.118;11.600;2023-08-20T14:54:59;35.50;56.60
1830;DHT22;914;48.118;11.600;2023-08-20T14:57:25;35.60;57.00
1830;DHT22;914;48.118;11.600;2023-08-20T14:59:51;35.50;55.70
1830;DHT22;914;48.118;11.600;2023-08-20T15:02:17;35.10;56.50
1830;DHT22;914;48.118;11.600;2023-08-20T15:04:43;35.30;56.50
1830;DHT22;914;48.118;11.600;2023-08-20T15:07:08;34.40;57.60
1830;DHT22;914;48.118;11.600;2023-08-20T15:09:34;34.40;57.60
1830;DHT22;914;48.118;11.600;2023-08-20T15:12:02;33.80;57.80
1830;DHT22;914;48.118;11.600;2023-08-20T15:14:28;34.10;57.20
1830;DHT22;914;48.118;11.600;2023-08-20T15:16:54;34.20;57.10
1830;DHT22;914;48.118;11.600;2023-08-20T15:19:20;34.30;57.20
1830;DHT22;914;48.118;11.600;2023-08-20T15:21:47;34.10;56.00
1830;DHT22;914;48.118;11.600;2023-08-20T15:24:13;34.20;56.70
1830;DHT22;914;48.118;11.600;2023-08-20T15:26:38;34.70;55.90
1830;DHT22;914;48.118;11.600;2023-08-20T15:29:04;34.90;56.60
1830;DHT22;914;48.118;11.600;2023-08-20T15:31:30;34.90;57.00
1830;DHT22;914;48.118;11.600;2023-08-20T15:33:55;34.80;56.50
1830;DHT22;914;48.118;11.600;2023-08-20T15:36:21;35.40;55.20
1830;DHT22;914;48.118;11.600;2023-08-20T15:38:47;34.30;56.00
1830;DHT22;914;48.118;11.600;2023-08-20T15:41:13;34.40;57.30
1830;DHT22;914;48.118;11.600;2023-08-20T15:43:41;34.60;56.40
1830;DHT22;914;48.118;11.600;2023-08-20T15:46:07;34.90;57.10
1830;DHT22;914;48.118;11.600;2023-08-20T15:48:33;35.00;56.20
1830;DHT22;914;48.118;11.600;2023-08-20T15:50:59;35.10;56.30
1830;DHT22;914;48.118;11.600;2023-08-20T15:53:28;34.90;56.10
1830;DHT22;914;48.118;11.600;2023-08-20T15:55:54;35.10;56.60
1830;DHT22;914;48.118;11.600;2023-08-20T15:58:29;35.10;57.30
1830;DHT22;914;48.118;11.600;2023-08-20T16:00:55;35.10;56.80
1830;DHT22;914;48.118;11.600;2023-08-20T16:03:22;34.90;57.40
1830;DHT22;914;48.118;11.600;2023-08-20T16:05:48;35.00;57.30
1830;DHT22;914;48.118;11.600;2023-08-20T16:08:14;34.90;57.30
1830;DHT22;914;48.118;11.600;2023-08-20T16:10:40;35.20;56.70
1830;DHT22;914;48.118;11.600;2023-08-20T16:13:06;34.90;57.20
1830;DHT22;914;48.118;11.600;2023-08-20T16:15:32;35.10;57.70
1830;DHT22;914;48.118;11.600;2023-08-20T16:17:58;34.90;57.50